Deadhorse, Alaska
Current Conditions -  °F | °C
As of 10:53 PM on Wednesday 22 Oct 2014 (Local Time) from PASC Reporting Station
Overcast Overcast  
Wind Chill:   Ceiling: 1300
Heat Index: 22°   Visibility: 9mi
Dew Point: 18°   Wind: 20mph
Humidity: 85%   Direction: 100°E
Pressure: 29.94"   Gusts: NA
Location:  70.2°N, 148.46°W
Report Text: PASC 230653Z 10017KT 9SM OVC013 M06/M08 A2994 RMK AO2 SLP140 T10561078
Loading
Personal Weather Stations






























Interactive Weather Map
Tropical Storm Tracking
New forecast layout! Learn more

10-Day Weather Forecast

Advertisements
Track Severe Weather on mobile